sensor_id;sensor_type;location;lat;lon;timestamp;P1;durP1;ratioP1;P2;durP2;ratioP2
51216;SDS011;37283;49.760;8.648;2023-07-28T00:01:11;2.75;;;1.92;;
51216;SDS011;37283;49.760;8.648;2023-07-28T00:03:38;4.05;;;2.00;;
51216;SDS011;37283;49.760;8.648;2023-07-28T00:06:04;2.10;;;1.90;;
51216;SDS011;37283;49.760;8.648;2023-07-28T00:08:31;2.35;;;1.77;;
51216;SDS011;37283;49.760;8.648;2023-07-28T00:10:57;2.10;;;1.90;;
51216;SDS011;37283;49.760;8.648;2023-07-28T00:13:24;3.30;;;1.98;;
51216;SDS011;37283;49.760;8.648;2023-07-28T00:15:50;2.42;;;1.77;;
51216;SDS011;37283;49.760;8.648;2023-07-28T00:18:17;2.85;;;2.22;;
51216;SDS011;37283;49.760;8.648;2023-07-28T00:20:44;4.65;;;1.80;;
51216;SDS011;37283;49.760;8.648;2023-07-28T00:23:11;2.63;;;1.92;;
51216;SDS011;37283;49.760;8.648;2023-07-28T00:25:37;2.45;;;1.80;;
51216;SDS011;37283;49.760;8.648;2023-07-28T00:28:04;1.92;;;1.73;;
51216;SDS011;37283;49.760;8.648;2023-07-28T00:30:31;2.10;;;1.85;;
51216;SDS011;37283;49.760;8.648;2023-07-28T00:32:57;2.63;;;1.95;;
51216;SDS011;37283;49.760;8.648;2023-07-28T00:35:24;2.17;;;1.95;;
51216;SDS011;37283;49.760;8.648;2023-07-28T00:37:51;3.03;;;2.00;;
51216;SDS011;37283;49.760;8.648;2023-07-28T00:40:18;2.63;;;1.90;;
51216;SDS011;37283;49.760;8.648;2023-07-28T00:42:44;2.63;;;1.92;;
51216;SDS011;37283;49.760;8.648;2023-07-28T00:45:11;3.70;;;2.00;;
51216;SDS011;37283;49.760;8.648;2023-07-28T00:47:38;2.72;;;2.08;;
51216;SDS011;37283;49.760;8.648;2023-07-28T00:50:05;2.60;;;2.22;;
51216;SDS011;37283;49.760;8.648;2023-07-28T00:52:32;3.33;;;1.80;;
51216;SDS011;37283;49.760;8.648;2023-07-28T00:54:59;3.47;;;2.10;;
51216;SDS011;37283;49.760;8.648;2023-07-28T00:57:26;4.53;;;2.17;;
51216;SDS011;37283;49.760;8.648;2023-07-28T00:59:53;4.35;;;2.10;;
51216;SDS011;37283;49.760;8.648;2023-07-28T01:02:20;4.55;;;2.03;;
51216;SDS011;37283;49.760;8.648;2023-07-28T01:04:47;3.03;;;2.10;;
51216;SDS011;37283;49.760;8.648;2023-07-28T01:07:21;2.55;;;1.83;;
51216;SDS011;37283;49.760;8.648;2023-07-28T01:10:12;2.85;;;1.92;;
51216;SDS011;37283;49.760;8.648;2023-07-28T01:12:42;4.82;;;2.30;;
51216;SDS011;37283;49.760;8.648;2023-07-28T01:15:09;2.60;;;1.98;;
51216;SDS011;37283;49.760;8.648;2023-07-28T01:17:36;3.97;;;2.22;;
51216;SDS011;37283;49.760;8.648;2023-07-28T01:20:02;3.17;;;2.17;;
51216;SDS011;37283;49.760;8.648;2023-07-28T01:25:14;4.50;;;2.47;;
51216;SDS011;37283;49.760;8.648;2023-07-28T01:27:51;4.47;;;2.17;;
51216;SDS011;37283;49.760;8.648;2023-07-28T01:30:19;5.70;;;2.50;;
51216;SDS011;37283;49.760;8.648;2023-07-28T01:32:47;3.83;;;2.20;;
51216;SDS011;37283;49.760;8.648;2023-07-28T01:35:14;3.97;;;2.42;;
51216;SDS011;37283;49.760;8.648;2023-07-28T01:37:40;3.05;;;2.35;;
51216;SDS011;37283;49.760;8.648;2023-07-28T01:40:07;3.33;;;2.13;;
51216;SDS011;37283;49.760;8.648;2023-07-28T01:42:34;5.65;;;2.85;;
51216;SDS011;37283;49.760;8.648;2023-07-28T01:45:00;4.13;;;2.20;;
51216;SDS011;37283;49.760;8.648;2023-07-28T01:47:27;2.65;;;2.40;;
51216;SDS011;37283;49.760;8.648;2023-07-28T01:49:55;2.83;;;2.00;;
51216;SDS011;37283;49.760;8.648;2023-07-28T01:52:21;6.22;;;2.20;;
51216;SDS011;37283;49.760;8.648;2023-07-28T01:54:49;2.50;;;1.95;;
51216;SDS011;37283;49.760;8.648;2023-07-28T01:57:16;3.13;;;1.90;;
51216;SDS011;37283;49.760;8.648;2023-07-28T01:59:43;2.30;;;1.70;;
51216;SDS011;37283;49.760;8.648;2023-07-28T02:02:10;1.70;;;1.60;;
51216;SDS011;37283;49.760;8.648;2023-07-28T02:04:36;4.45;;;2.00;;
51216;SDS011;37283;49.760;8.648;2023-07-28T02:07:03;2.47;;;1.80;;
51216;SDS011;37283;49.760;8.648;2023-07-28T02:09:29;3.25;;;2.13;;
51216;SDS011;37283;49.760;8.648;2023-07-28T02:11:56;2.63;;;2.08;;
51216;SDS011;37283;49.760;8.648;2023-07-28T02:14:22;5.60;;;2.10;;
51216;SDS011;37283;49.760;8.648;2023-07-28T02:16:49;3.50;;;1.92;;
51216;SDS011;37283;49.760;8.648;2023-07-28T02:19:16;2.85;;;2.08;;
51216;SDS011;37283;49.760;8.648;2023-07-28T02:21:42;2.50;;;2.00;;
51216;SDS011;37283;49.760;8.648;2023-07-28T02:24:09;2.20;;;2.00;;
51216;SDS011;37283;49.760;8.648;2023-07-28T02:26:35;2.83;;;2.10;;
51216;SDS011;37283;49.760;8.648;2023-07-28T02:29:02;3.05;;;2.20;;
51216;SDS011;37283;49.760;8.648;2023-07-28T02:31:29;3.15;;;2.03;;
51216;SDS011;37283;49.760;8.648;2023-07-28T02:33:55;2.97;;;1.70;;
51216;SDS011;37283;49.760;8.648;2023-07-28T02:36:22;4.13;;;2.30;;
51216;SDS011;37283;49.760;8.648;2023-07-28T02:38:48;1.95;;;1.63;;
51216;SDS011;37283;49.760;8.648;2023-07-28T02:41:15;2.95;;;2.10;;
51216;SDS011;37283;49.760;8.648;2023-07-28T02:43:42;2.78;;;2.20;;
51216;SDS011;37283;49.760;8.648;2023-07-28T02:46:08;3.72;;;2.20;;
51216;SDS011;37283;49.760;8.648;2023-07-28T02:48:35;9.68;;;2.40;;
51216;SDS011;37283;49.760;8.648;2023-07-28T02:51:01;4.03;;;2.03;;
51216;SDS011;37283;49.760;8.648;2023-07-28T02:53:28;1.80;;;1.70;;
51216;SDS011;37283;49.760;8.648;2023-07-28T02:55:56;2.22;;;1.67;;
51216;SDS011;37283;49.760;8.648;2023-07-28T02:58:23;3.45;;;1.90;;
51216;SDS011;37283;49.760;8.648;2023-07-28T03:00:51;2.35;;;2.10;;
51216;SDS011;37283;49.760;8.648;2023-07-28T03:03:24;2.35;;;1.85;;
51216;SDS011;37283;49.760;8.648;2023-07-28T03:05:51;2.38;;;1.80;;
51216;SDS011;37283;49.760;8.648;2023-07-28T03:08:24;2.40;;;1.60;;
51216;SDS011;37283;49.760;8.648;2023-07-28T03:10:57;2.15;;;1.70;;
51216;SDS011;37283;49.760;8.648;2023-07-28T03:13:24;1.92;;;1.60;;
51216;SDS011;37283;49.760;8.648;2023-07-28T03:15:51;2.58;;;1.52;;
51216;SDS011;37283;49.760;8.648;2023-07-28T03:18:21;2.83;;;1.50;;
51216;SDS011;37283;49.760;8.648;2023-07-28T03:20:47;2.22;;;1.63;;
51216;SDS011;37283;49.760;8.648;2023-07-28T03:23:14;2.03;;;1.70;;
51216;SDS011;37283;49.760;8.648;2023-07-28T03:25:40;1.95;;;1.63;;
51216;SDS011;37283;49.760;8.648;2023-07-28T03:28:07;1.63;;;1.52;;
51216;SDS011;37283;49.760;8.648;2023-07-28T03:30:34;1.90;;;1.65;;
51216;SDS011;37283;49.760;8.648;2023-07-28T03:33:00;2.00;;;1.50;;
51216;SDS011;37283;49.760;8.648;2023-07-28T03:35:27;1.98;;;1.55;;
51216;SDS011;37283;49.760;8.648;2023-07-28T03:38:04;3.33;;;1.50;;
51216;SDS011;37283;49.760;8.648;2023-07-28T03:40:30;3.03;;;1.60;;
51216;SDS011;37283;49.760;8.648;2023-07-28T03:42:57;2.03;;;1.83;;
51216;SDS011;37283;49.760;8.648;2023-07-28T03:45:24;1.92;;;1.63;;
51216;SDS011;37283;49.760;8.648;2023-07-28T03:47:50;2.25;;;1.83;;
51216;SDS011;37283;49.760;8.648;2023-07-28T03:50:17;2.05;;;1.80;;
51216;SDS011;37283;49.760;8.648;2023-07-28T03:52:44;2.28;;;1.77;;
51216;SDS011;37283;49.760;8.648;2023-07-28T03:55:11;2.08;;;1.80;;
51216;SDS011;37283;49.760;8.648;2023-07-28T03:57:37;2.38;;;2.00;;
51216;SDS011;37283;49.760;8.648;2023-07-28T04:00:04;2.60;;;2.30;;
51216;SDS011;37283;49.760;8.648;2023-07-28T04:02:37;3.33;;;2.03;;
51216;SDS011;37283;49.760;8.648;2023-07-28T04:05:04;2.92;;;2.10;;
51216;SDS011;37283;49.760;8.648;2023-07-28T04:07:31;1.80;;;1.70;;
51216;SDS011;37283;49.760;8.648;2023-07-28T04:09:57;2.30;;;1.90;;
51216;SDS011;37283;49.760;8.648;2023-07-28T04:12:24;2.45;;;2.20;;
51216;SDS011;37283;49.760;8.648;2023-07-28T04:14:50;2.55;;;2.10;;
51216;SDS011;37283;49.760;8.648;2023-07-28T04:17:17;2.35;;;1.90;;
51216;SDS011;37283;49.760;8.648;2023-07-28T04:19:43;2.22;;;2.00;;
51216;SDS011;37283;49.760;8.648;2023-07-28T04:22:10;3.42;;;1.95;;
51216;SDS011;37283;49.760;8.648;2023-07-28T04:24:36;2.05;;;1.85;;
51216;SDS011;37283;49.760;8.648;2023-07-28T04:27:03;1.70;;;1.60;;
51216;SDS011;37283;49.760;8.648;2023-07-28T04:29:30;2.88;;;2.00;;
51216;SDS011;37283;49.760;8.648;2023-07-28T04:31:58;3.00;;;2.08;;
51216;SDS011;37283;49.760;8.648;2023-07-28T04:34:28;2.63;;;1.95;;
51216;SDS011;37283;49.760;8.648;2023-07-28T04:37:24;2.40;;;1.90;;
51216;SDS011;37283;49.760;8.648;2023-07-28T04:39:57;1.98;;;1.63;;
51216;SDS011;37283;49.760;8.648;2023-07-28T04:42:30;2.13;;;1.70;;
51216;SDS011;37283;49.760;8.648;2023-07-28T04:44:57;2.15;;;1.55;;
51216;SDS011;37283;49.760;8.648;2023-07-28T04:47:23;2.15;;;1.55;;
51216;SDS011;37283;49.760;8.648;2023-07-28T04:49:50;1.90;;;1.52;;
51216;SDS011;37283;49.760;8.648;2023-07-28T04:52:45;2.40;;;1.50;;
51216;SDS011;37283;49.760;8.648;2023-07-28T04:55:27;1.92;;;1.55;;
51216;SDS011;37283;49.760;8.648;2023-07-28T04:57:54;1.63;;;1.52;;
51216;SDS011;37283;49.760;8.648;2023-07-28T05:00:23;2.85;;;1.50;;
51216;SDS011;37283;49.760;8.648;2023-07-28T05:02:50;1.42;;;1.33;;
51216;SDS011;37283;49.760;8.648;2023-07-28T05:05:17;1.60;;;1.50;;
51216;SDS011;37283;49.760;8.648;2023-07-28T05:07:44;1.50;;;1.40;;
51216;SDS011;37283;49.760;8.648;2023-07-28T05:10:13;2.05;;;1.20;;
51216;SDS011;37283;49.760;8.648;2023-07-28T05:12:40;1.33;;;1.20;;
51216;SDS011;37283;49.760;8.648;2023-07-28T05:15:06;2.83;;;1.70;;
51216;SDS011;37283;49.760;8.648;2023-07-28T05:17:38;3.58;;;1.30;;
51216;SDS011;37283;49.760;8.648;2023-07-28T05:20:27;2.05;;;1.40;;
51216;SDS011;37283;49.760;8.648;2023-07-28T05:23:04;3.75;;;1.50;;
51216;SDS011;37283;49.760;8.648;2023-07-28T05:25:30;2.05;;;1.17;;
51216;SDS011;37283;49.760;8.648;2023-07-28T05:27:57;1.60;;;1.30;;
51216;SDS011;37283;49.760;8.648;2023-07-28T05:30:25;2.95;;;1.13;;
51216;SDS011;37283;49.760;8.648;2023-07-28T05:32:56;2.65;;;1.40;;
51216;SDS011;37283;49.760;8.648;2023-07-28T05:35:28;1.75;;;1.25;;
51216;SDS011;37283;49.760;8.648;2023-07-28T05:37:55;2.00;;;1.20;;
51216;SDS011;37283;49.760;8.648;2023-07-28T05:40:21;2.95;;;1.30;;
51216;SDS011;37283;49.760;8.648;2023-07-28T05:42:48;1.40;;;1.27;;
51216;SDS011;37283;49.760;8.648;2023-07-28T05:45:15;1.83;;;1.23;;
51216;SDS011;37283;49.760;8.648;2023-07-28T05:47:41;1.65;;;1.15;;
51216;SDS011;37283;49.760;8.648;2023-07-28T05:50:08;1.65;;;1.15;;
51216;SDS011;37283;49.760;8.648;2023-07-28T05:52:35;1.60;;;1.40;;
51216;SDS011;37283;49.760;8.648;2023-07-28T05:55:01;2.58;;;1.50;;
51216;SDS011;37283;49.760;8.648;2023-07-28T05:57:28;1.50;;;1.20;;
51216;SDS011;37283;49.760;8.648;2023-07-28T05:59:55;1.88;;;1.10;;
51216;SDS011;37283;49.760;8.648;2023-07-28T06:02:22;1.95;;;1.40;;
51216;SDS011;37283;49.760;8.648;2023-07-28T06:04:52;1.83;;;1.30;;
51216;SDS011;37283;49.760;8.648;2023-07-28T06:07:19;1.90;;;1.33;;
51216;SDS011;37283;49.760;8.648;2023-07-28T06:09:46;1.25;;;1.05;;
51216;SDS011;37283;49.760;8.648;2023-07-28T06:12:13;1.35;;;1.20;;
51216;SDS011;37283;49.760;8.648;2023-07-28T06:14:40;2.90;;;1.23;;
51216;SDS011;37283;49.760;8.648;2023-07-28T06:17:08;1.95;;;1.30;;
51216;SDS011;37283;49.760;8.648;2023-07-28T06:19:36;1.48;;;1.20;;
51216;SDS011;37283;49.760;8.648;2023-07-28T06:22:03;2.67;;;1.27;;
51216;SDS011;37283;49.760;8.648;2023-07-28T06:24:32;2.20;;;1.30;;
51216;SDS011;37283;49.760;8.648;2023-07-28T06:27:00;2.00;;;1.30;;
51216;SDS011;37283;49.760;8.648;2023-07-28T06:29:29;1.48;;;1.05;;
51216;SDS011;37283;49.760;8.648;2023-07-28T06:31:56;1.75;;;1.10;;
51216;SDS011;37283;49.760;8.648;2023-07-28T06:34:22;3.17;;;1.10;;
51216;SDS011;37283;49.760;8.648;2023-07-28T06:36:49;3.55;;;1.20;;
51216;SDS011;37283;49.760;8.648;2023-07-28T06:39:15;3.75;;;1.25;;
51216;SDS011;37283;49.760;8.648;2023-07-28T06:41:42;1.92;;;1.38;;
51216;SDS011;37283;49.760;8.648;2023-07-28T06:46:37;1.75;;;1.30;;
51216;SDS011;37283;49.760;8.648;2023-07-28T06:49:05;3.53;;;1.38;;
51216;SDS011;37283;49.760;8.648;2023-07-28T06:51:31;2.92;;;1.10;;
51216;SDS011;37283;49.760;8.648;2023-07-28T06:53:59;4.10;;;1.30;;
51216;SDS011;37283;49.760;8.648;2023-07-28T06:56:25;1.65;;;1.40;;
51216;SDS011;37283;49.760;8.648;2023-07-28T06:58:52;1.20;;;1.10;;
51216;SDS011;37283;49.760;8.648;2023-07-28T07:01:38;1.70;;;1.23;;
51216;SDS011;37283;49.760;8.648;2023-07-28T07:04:05;1.80;;;1.20;;
51216;SDS011;37283;49.760;8.648;2023-07-28T07:06:32;1.25;;;1.15;;
51216;SDS011;37283;49.760;8.648;2023-07-28T07:08:59;2.38;;;1.25;;
51216;SDS011;37283;49.760;8.648;2023-07-28T07:11:25;1.98;;;1.30;;
51216;SDS011;37283;49.760;8.648;2023-07-28T07:13:52;3.35;;;1.20;;
51216;SDS011;37283;49.760;8.648;2023-07-28T07:16:18;2.70;;;1.20;;
51216;SDS011;37283;49.760;8.648;2023-07-28T07:18:53;1.63;;;1.17;;
51216;SDS011;37283;49.760;8.648;2023-07-28T07:21:19;1.60;;;1.25;;
51216;SDS011;37283;49.760;8.648;2023-07-28T07:23:46;2.08;;;1.20;;
51216;SDS011;37283;49.760;8.648;2023-07-28T07:26:24;1.40;;;1.30;;
51216;SDS011;37283;49.760;8.648;2023-07-28T07:28:50;1.70;;;1.38;;
51216;SDS011;37283;49.760;8.648;2023-07-28T07:31:17;1.63;;;1.40;;
51216;SDS011;37283;49.760;8.648;2023-07-28T07:33:43;1.95;;;1.52;;
51216;SDS011;37283;49.760;8.648;2023-07-28T07:36:16;1.50;;;1.40;;
51216;SDS011;37283;49.760;8.648;2023-07-28T07:38:44;1.70;;;1.60;;
51216;SDS011;37283;49.760;8.648;2023-07-28T07:41:15;1.80;;;1.70;;
51216;SDS011;37283;49.760;8.648;2023-07-28T07:43:48;2.63;;;1.60;;
51216;SDS011;37283;49.760;8.648;2023-07-28T07:46:16;1.40;;;1.30;;
51216;SDS011;37283;49.760;8.648;2023-07-28T07:48:42;2.28;;;1.63;;
51216;SDS011;37283;49.760;8.648;2023-07-28T07:51:09;2.15;;;1.80;;
51216;SDS011;37283;49.760;8.648;2023-07-28T07:53:36;1.80;;;1.58;;
51216;SDS011;37283;49.760;8.648;2023-07-28T07:56:03;8.77;;;1.60;;
51216;SDS011;37283;49.760;8.648;2023-07-28T07:58:30;2.42;;;1.80;;
51216;SDS011;37283;49.760;8.648;2023-07-28T08:00:57;9.43;;;1.50;;
51216;SDS011;37283;49.760;8.648;2023-07-28T08:03:24;2.03;;;1.80;;
51216;SDS011;37283;49.760;8.648;2023-07-28T08:05:50;1.92;;;1.63;;
51216;SDS011;37283;49.760;8.648;2023-07-28T08:08:17;2.20;;;1.50;;
51216;SDS011;37283;49.760;8.648;2023-07-28T08:10:46;1.63;;;1.25;;
51216;SDS011;37283;49.760;8.648;2023-07-28T08:13:13;1.95;;;1.40;;
51216;SDS011;37283;49.760;8.648;2023-07-28T08:15:42;2.38;;;1.50;;
51216;SDS011;37283;49.760;8.648;2023-07-28T08:18:10;1.80;;;1.60;;
51216;SDS011;37283;49.760;8.648;2023-07-28T08:20:37;1.70;;;1.52;;
51216;SDS011;37283;49.760;8.648;2023-07-28T08:23:03;2.53;;;1.70;;
51216;SDS011;37283;49.760;8.648;2023-07-28T08:25:30;2.13;;;1.63;;
51216;SDS011;37283;49.760;8.648;2023-07-28T08:27:56;1.90;;;1.63;;
51216;SDS011;37283;49.760;8.648;2023-07-28T08:30:23;2.50;;;1.88;;
51216;SDS011;37283;49.760;8.648;2023-07-28T08:32:50;3.10;;;1.88;;
51216;SDS011;37283;49.760;8.648;2023-07-28T08:35:17;2.40;;;1.60;;
51216;SDS011;37283;49.760;8.648;2023-07-28T08:37:44;3.97;;;1.70;;
51216;SDS011;37283;49.760;8.648;2023-07-28T08:40:10;2.78;;;1.90;;
51216;SDS011;37283;49.760;8.648;2023-07-28T08:42:39;1.73;;;1.50;;
51216;SDS011;37283;49.760;8.648;2023-07-28T08:45:06;3.97;;;1.58;;
51216;SDS011;37283;49.760;8.648;2023-07-28T08:47:35;3.55;;;1.88;;
51216;SDS011;37283;49.760;8.648;2023-07-28T08:50:02;3.28;;;1.80;;
51216;SDS011;37283;49.760;8.648;2023-07-28T08:52:29;2.25;;;1.83;;
51216;SDS011;37283;49.760;8.648;2023-07-28T08:54:56;2.40;;;1.90;;
51216;SDS011;37283;49.760;8.648;2023-07-28T08:57:22;3.20;;;1.38;;
51216;SDS011;37283;49.760;8.648;2023-07-28T08:59:50;1.80;;;1.50;;
51216;SDS011;37283;49.760;8.648;2023-07-28T09:02:17;2.35;;;1.67;;
51216;SDS011;37283;49.760;8.648;2023-07-28T09:04:46;4.18;;;1.90;;
51216;SDS011;37283;49.760;8.648;2023-07-28T09:07:13;5.28;;;1.75;;
51216;SDS011;37283;49.760;8.648;2023-07-28T09:09:41;1.85;;;1.60;;
51216;SDS011;37283;49.760;8.648;2023-07-28T09:12:07;1.73;;;1.50;;
51216;SDS011;37283;49.760;8.648;2023-07-28T09:14:37;2.13;;;1.40;;
51216;SDS011;37283;49.760;8.648;2023-07-28T09:17:11;2.85;;;1.30;;
51216;SDS011;37283;49.760;8.648;2023-07-28T09:22:18;1.55;;;1.30;;
51216;SDS011;37283;49.760;8.648;2023-07-28T09:24:45;1.27;;;1.10;;
51216;SDS011;37283;49.760;8.648;2023-07-28T09:27:19;3.25;;;1.13;;
51216;SDS011;37283;49.760;8.648;2023-07-28T09:29:48;2.00;;;1.33;;
51216;SDS011;37283;49.760;8.648;2023-07-28T09:32:16;1.30;;;1.20;;
51216;SDS011;37283;49.760;8.648;2023-07-28T09:34:42;2.30;;;1.30;;
51216;SDS011;37283;49.760;8.648;2023-07-28T09:37:09;1.42;;;1.27;;
51216;SDS011;37283;49.760;8.648;2023-07-28T09:39:36;2.67;;;1.50;;
51216;SDS011;37283;49.760;8.648;2023-07-28T09:42:03;1.63;;;1.30;;
51216;SDS011;37283;49.760;8.648;2023-07-28T09:44:30;2.47;;;1.35;;
51216;SDS011;37283;49.760;8.648;2023-07-28T09:46:57;1.70;;;1.35;;
51216;SDS011;37283;49.760;8.648;2023-07-28T09:51:57;4.32;;;1.60;;
51216;SDS011;37283;49.760;8.648;2023-07-28T09:54:27;1.40;;;1.27;;
51216;SDS011;37283;49.760;8.648;2023-07-28T09:56:56;3.05;;;1.40;;
51216;SDS011;37283;49.760;8.648;2023-07-28T09:59:24;2.83;;;1.60;;
51216;SDS011;37283;49.760;8.648;2023-07-28T10:01:56;2.28;;;1.30;;
51216;SDS011;37283;49.760;8.648;2023-07-28T10:04:24;3.67;;;1.45;;
51216;SDS011;37283;49.760;8.648;2023-07-28T10:06:51;3.08;;;1.48;;
51216;SDS011;37283;49.760;8.648;2023-07-28T10:09:26;2.30;;;1.52;;
51216;SDS011;37283;49.760;8.648;2023-07-28T10:11:54;1.50;;;1.30;;
51216;SDS011;37283;49.760;8.648;2023-07-28T10:14:28;1.83;;;1.30;;
51216;SDS011;37283;49.760;8.648;2023-07-28T10:16:57;2.90;;;1.50;;
51216;SDS011;37283;49.760;8.648;2023-07-28T10:19:28;4.30;;;1.63;;
51216;SDS011;37283;49.760;8.648;2023-07-28T10:22:02;2.00;;;1.33;;
51216;SDS011;37283;49.760;8.648;2023-07-28T10:24:54;2.63;;;1.40;;
51216;SDS011;37283;49.760;8.648;2023-07-28T10:27:35;1.60;;;1.27;;
51216;SDS011;37283;49.760;8.648;2023-07-28T10:30:10;1.38;;;1.27;;
51216;SDS011;37283;49.760;8.648;2023-07-28T10:32:39;2.05;;;1.30;;
51216;SDS011;37283;49.760;8.648;2023-07-28T10:37:35;1.65;;;1.20;;
51216;SDS011;37283;49.760;8.648;2023-07-28T10:40:21;4.68;;;1.42;;
51216;SDS011;37283;49.760;8.648;2023-07-28T10:43:05;1.20;;;1.00;;
51216;SDS011;37283;49.760;8.648;2023-07-28T10:45:31;5.32;;;1.40;;
51216;SDS011;37283;49.760;8.648;2023-07-28T10:47:59;3.58;;;1.20;;
51216;SDS011;37283;49.760;8.648;2023-07-28T10:50:27;3.70;;;1.50;;
51216;SDS011;37283;49.760;8.648;2023-07-28T10:52:54;2.00;;;1.30;;
51216;SDS011;37283;49.760;8.648;2023-07-28T10:55:23;4.55;;;1.50;;
51216;SDS011;37283;49.760;8.648;2023-07-28T10:57:51;1.70;;;1.20;;
51216;SDS011;37283;49.760;8.648;2023-07-28T11:00:18;2.53;;;1.42;;
51216;SDS011;37283;49.760;8.648;2023-07-28T11:02:50;1.75;;;1.20;;
51216;SDS011;37283;49.760;8.648;2023-07-28T11:05:21;1.50;;;1.33;;
51216;SDS011;37283;49.760;8.648;2023-07-28T11:07:50;1.60;;;1.10;;
51216;SDS011;37283;49.760;8.648;2023-07-28T11:10:18;1.42;;;0.90;;
51216;SDS011;37283;49.760;8.648;2023-07-28T11:12:45;1.20;;;0.90;;
51216;SDS011;37283;49.760;8.648;2023-07-28T11:15:13;1.42;;;1.00;;
51216;SDS011;37283;49.760;8.648;2023-07-28T11:17:41;1.85;;;1.30;;
51216;SDS011;37283;49.760;8.648;2023-07-28T11:20:18;2.60;;;1.13;;
51216;SDS011;37283;49.760;8.648;2023-07-28T11:22:54;1.08;;;0.98;;
51216;SDS011;37283;49.760;8.648;2023-07-28T11:25:23;1.67;;;1.25;;
51216;SDS011;37283;49.760;8.648;2023-07-28T11:27:50;1.88;;;1.05;;
51216;SDS011;37283;49.760;8.648;2023-07-28T11:30:17;1.38;;;1.20;;
51216;SDS011;37283;49.760;8.648;2023-07-28T11:32:48;2.83;;;1.15;;
51216;SDS011;37283;49.760;8.648;2023-07-28T11:35:17;1.65;;;1.00;;
51216;SDS011;37283;49.760;8.648;2023-07-28T11:37:46;1.73;;;1.20;;
51216;SDS011;37283;49.760;8.648;2023-07-28T11:40:14;1.95;;;1.20;;
51216;SDS011;37283;49.760;8.648;2023-07-28T11:42:43;1.58;;;1.23;;
51216;SDS011;37283;49.760;8.648;2023-07-28T11:45:12;1.30;;;1.20;;
51216;SDS011;37283;49.760;8.648;2023-07-28T11:47:39;2.20;;;1.20;;
51216;SDS011;37283;49.760;8.648;2023-07-28T11:50:06;1.35;;;1.10;;
51216;SDS011;37283;49.760;8.648;2023-07-28T11:52:34;2.08;;;1.27;;
51216;SDS011;37283;49.760;8.648;2023-07-28T11:55:02;2.65;;;1.20;;
51216;SDS011;37283;49.760;8.648;2023-07-28T11:57:29;1.90;;;1.27;;
51216;SDS011;37283;49.760;8.648;2023-07-28T11:59:59;2.50;;;1.30;;
51216;SDS011;37283;49.760;8.648;2023-07-28T12:02:29;2.00;;;1.40;;
51216;SDS011;37283;49.760;8.648;2023-07-28T12:04:57;1.70;;;1.20;;
51216;SDS011;37283;49.760;8.648;2023-07-28T12:07:30;2.08;;;1.25;;
51216;SDS011;37283;49.760;8.648;2023-07-28T12:10:04;1.48;;;1.17;;
51216;SDS011;37283;49.760;8.648;2023-07-28T12:12:42;2.08;;;1.13;;
51216;SDS011;37283;49.760;8.648;2023-07-28T12:15:20;1.55;;;1.30;;
51216;SDS011;37283;49.760;8.648;2023-07-28T12:20:39;2.77;;;1.30;;
51216;SDS011;37283;49.760;8.648;2023-07-28T12:23:06;2.58;;;1.45;;
51216;SDS011;37283;49.760;8.648;2023-07-28T12:25:36;2.88;;;1.20;;
51216;SDS011;37283;49.760;8.648;2023-07-28T12:28:03;1.55;;;1.40;;
51216;SDS011;37283;49.760;8.648;2023-07-28T12:30:30;1.40;;;1.27;;
51216;SDS011;37283;49.760;8.648;2023-07-28T12:32:57;1.63;;;1.20;;
51216;SDS011;37283;49.760;8.648;2023-07-28T12:35:28;1.98;;;1.50;;
51216;SDS011;37283;49.760;8.648;2023-07-28T12:38:01;2.13;;;1.27;;
51216;SDS011;37283;49.760;8.648;2023-07-28T12:40:50;4.82;;;1.30;;
51216;SDS011;37283;49.760;8.648;2023-07-28T12:43:21;1.85;;;1.38;;
51216;SDS011;37283;49.760;8.648;2023-07-28T12:45:50;2.35;;;1.20;;
51216;SDS011;37283;49.760;8.648;2023-07-28T12:48:20;1.92;;;1.38;;
51216;SDS011;37283;49.760;8.648;2023-07-28T12:50:47;3.42;;;1.30;;
51216;SDS011;37283;49.760;8.648;2023-07-28T12:53:14;4.38;;;1.45;;
51216;SDS011;37283;49.760;8.648;2023-07-28T12:55:48;2.25;;;1.30;;
51216;SDS011;37283;49.760;8.648;2023-07-28T12:58:17;2.67;;;1.40;;
51216;SDS011;37283;49.760;8.648;2023-07-28T13:00:47;2.22;;;1.50;;
51216;SDS011;37283;49.760;8.648;2023-07-28T13:03:16;2.30;;;1.58;;
51216;SDS011;37283;49.760;8.648;2023-07-28T13:05:43;5.65;;;1.75;;
51216;SDS011;37283;49.760;8.648;2023-07-28T13:08:10;4.20;;;1.40;;
51216;SDS011;37283;49.760;8.648;2023-07-28T13:10:36;2.00;;;1.50;;
51216;SDS011;37283;49.760;8.648;2023-07-28T13:13:06;2.63;;;1.60;;
51216;SDS011;37283;49.760;8.648;2023-07-28T13:15:38;3.67;;;2.05;;
51216;SDS011;37283;49.760;8.648;2023-07-28T13:18:05;2.97;;;1.63;;
51216;SDS011;37283;49.760;8.648;2023-07-28T13:20:32;1.95;;;1.50;;
51216;SDS011;37283;49.760;8.648;2023-07-28T13:22:58;3.20;;;1.58;;
51216;SDS011;37283;49.760;8.648;2023-07-28T13:25:25;2.60;;;1.25;;
51216;SDS011;37283;49.760;8.648;2023-07-28T13:27:51;2.05;;;1.58;;
51216;SDS011;37283;49.760;8.648;2023-07-28T13:30:18;2.83;;;1.30;;
51216;SDS011;37283;49.760;8.648;2023-07-28T13:32:45;1.85;;;1.35;;
51216;SDS011;37283;49.760;8.648;2023-07-28T13:35:12;1.52;;;1.15;;
51216;SDS011;37283;49.760;8.648;2023-07-28T13:37:39;2.50;;;1.50;;
51216;SDS011;37283;49.760;8.648;2023-07-28T13:40:06;2.15;;;1.40;;
51216;SDS011;37283;49.760;8.648;2023-07-28T13:42:37;4.55;;;1.50;;
51216;SDS011;37283;49.760;8.648;2023-07-28T13:45:04;2.28;;;1.33;;
51216;SDS011;37283;49.760;8.648;2023-07-28T13:47:31;1.38;;;1.27;;
51216;SDS011;37283;49.760;8.648;2023-07-28T13:49:57;4.10;;;1.60;;
51216;SDS011;37283;49.760;8.648;2023-07-28T13:52:24;1.75;;;1.40;;
51216;SDS011;37283;49.760;8.648;2023-07-28T13:54:51;1.60;;;1.40;;
51216;SDS011;37283;49.760;8.648;2023-07-28T13:57:20;2.58;;;1.60;;
51216;SDS011;37283;49.760;8.648;2023-07-28T13:59:47;2.28;;;1.60;;
51216;SDS011;37283;49.760;8.648;2023-07-28T14:02:14;2.70;;;1.63;;
51216;SDS011;37283;49.760;8.648;2023-07-28T14:07:09;3.65;;;1.73;;
51216;SDS011;37283;49.760;8.648;2023-07-28T14:09:36;2.22;;;1.60;;
51216;SDS011;37283;49.760;8.648;2023-07-28T14:12:04;2.97;;;1.70;;
51216;SDS011;37283;49.760;8.648;2023-07-28T14:14:31;3.90;;;1.80;;
51216;SDS011;37283;49.760;8.648;2023-07-28T14:16:58;2.20;;;1.80;;
51216;SDS011;37283;49.760;8.648;2023-07-28T14:19:24;2.95;;;1.70;;
51216;SDS011;37283;49.760;8.648;2023-07-28T14:21:51;3.47;;;1.67;;
51216;SDS011;37283;49.760;8.648;2023-07-28T14:24:17;1.90;;;1.40;;
51216;SDS011;37283;49.760;8.648;2023-07-28T14:26:44;2.28;;;1.40;;
51216;SDS011;37283;49.760;8.648;2023-07-28T14:29:10;2.75;;;1.60;;
51216;SDS011;37283;49.760;8.648;2023-07-28T14:31:37;2.53;;;1.40;;
51216;SDS011;37283;49.760;8.648;2023-07-28T14:34:04;3.05;;;1.58;;
51216;SDS011;37283;49.760;8.648;2023-07-28T14:36:31;2.92;;;1.33;;
51216;SDS011;37283;49.760;8.648;2023-07-28T14:38:57;1.85;;;1.30;;
51216;SDS011;37283;49.760;8.648;2023-07-28T14:41:24;1.67;;;1.10;;
51216;SDS011;37283;49.760;8.648;2023-07-28T14:43:51;1.38;;;1.27;;
51216;SDS011;37283;49.760;8.648;2023-07-28T14:46:18;4.80;;;1.40;;
51216;SDS011;37283;49.760;8.648;2023-07-28T14:48:46;3.28;;;1.40;;
51216;SDS011;37283;49.760;8.648;2023-07-28T14:51:12;3.30;;;1.33;;
51216;SDS011;37283;49.760;8.648;2023-07-28T14:53:39;1.55;;;1.00;;
51216;SDS011;37283;49.760;8.648;2023-07-28T14:56:08;1.77;;;1.00;;
51216;SDS011;37283;49.760;8.648;2023-07-28T14:58:35;1.60;;;1.00;;
51216;SDS011;37283;49.760;8.648;2023-07-28T15:01:01;1.25;;;1.15;;
51216;SDS011;37283;49.760;8.648;2023-07-28T15:03:31;1.52;;;1.23;;
51216;SDS011;37283;49.760;8.648;2023-07-28T15:05:58;1.13;;;1.02;;
51216;SDS011;37283;49.760;8.648;2023-07-28T15:08:25;0.65;;;0.65;;
51216;SDS011;37283;49.760;8.648;2023-07-28T15:10:52;1.30;;;1.20;;
51216;SDS011;37283;49.760;8.648;2023-07-28T15:13:18;2.35;;;1.50;;